createdAt,value
2022-11-15T00:01:44.296Z,50.45
2022-11-15T00:04:29.663Z,40.38
2022-11-15T00:07:40.390Z,54.30
2022-11-15T00:10:20.688Z,57.40
2022-11-15T00:13:11.558Z,61.00
2022-11-15T00:16:02.368Z,58.08
2022-11-15T00:18:50.904Z,49.35
2022-11-15T00:21:36.351Z,60.70
2022-11-15T00:24:21.630Z,68.70
2022-11-15T00:27:08.204Z,70.68
2022-11-15T00:29:54.321Z,61.42
2022-11-15T00:32:39.668Z,62.65
2022-11-15T00:35:25.167Z,66.25
2022-11-15T00:38:10.776Z,56.03
2022-11-15T00:40:56.268Z,51.28
2022-11-15T00:43:44.332Z,58.95
2022-11-15T00:46:29.943Z,61.53
2022-11-15T00:49:15.330Z,60.00
2022-11-15T00:52:00.843Z,59.70
2022-11-15T00:54:46.345Z,58.88
2022-11-15T00:57:31.768Z,55.63
2022-11-15T01:00:17.660Z,50.22
2022-11-15T01:03:02.855Z,54.75
2022-11-15T01:05:48.374Z,66.73
2022-11-15T01:08:33.904Z,55.65
2022-11-15T01:11:19.107Z,61.15
2022-11-15T01:14:04.767Z,66.55
2022-11-15T01:16:50.314Z,51.45
2022-11-15T01:19:35.910Z,48.03
2022-11-15T01:22:21.596Z,69.07
2022-11-15T01:25:07.165Z,58.45
2022-11-15T01:27:52.648Z,59.13
2022-11-15T01:30:37.999Z,64.82
2022-11-15T01:33:23.311Z,60.67
2022-11-15T01:36:13.880Z,61.47
2022-11-15T01:39:00.318Z,64.53
2022-11-15T01:41:45.531Z,61.13
2022-11-15T01:44:52.848Z,64.57
2022-11-15T01:47:41.606Z,54.83
2022-11-15T01:50:32.136Z,51.50
2022-11-15T01:53:19.542Z,57.40
2022-11-15T01:56:09.013Z,63.42
2022-11-15T01:58:57.506Z,58.20
2022-11-15T02:01:43.223Z,53.03
2022-11-15T02:04:34.783Z,66.72
2022-11-15T02:07:22.718Z,49.20
2022-11-15T02:10:11.752Z,57.05
2022-11-15T02:13:00.366Z,55.50
2022-11-15T02:16:07.057Z,46.33
2022-11-15T02:19:19.084Z,62.22
2022-11-15T02:22:33.630Z,50.95
2022-11-15T02:25:47.213Z,46.85
2022-11-15T02:28:38.168Z,35.60
2022-11-15T02:31:54.837Z,49.17
2022-11-15T02:35:12.992Z,49.80
2022-11-15T02:38:31.230Z,51.45
2022-11-15T02:41:39.451Z,54.95
2022-11-15T02:44:31.511Z,36.55
2022-11-15T02:47:18.658Z,49.00
2022-11-15T02:50:10.224Z,44.10
2022-11-15T02:52:55.993Z,41.22
2022-11-15T02:55:52.116Z,42.78
2022-11-15T02:58:43.669Z,56.40
2022-11-15T03:01:57.218Z,44.40
2022-11-15T03:05:20.269Z,46.50
2022-11-15T03:08:13.442Z,37.42
2022-11-15T03:11:09.543Z,45.40
2022-11-15T03:13:58.594Z,47.05
2022-11-15T03:16:49.921Z,39.60
2022-11-15T03:19:53.848Z,43.65
2022-11-15T03:22:43.777Z,39.60
2022-11-15T03:25:31.792Z,33.22
2022-11-15T03:28:26.343Z,38.70
2022-11-15T03:31:33.225Z,46.33
2022-11-15T03:34:38.981Z,40.15
2022-11-15T03:37:36.265Z,33.53
2022-11-15T03:40:37.968Z,38.58
2022-11-15T03:43:46.631Z,36.65
2022-11-15T03:46:38.009Z,37.73
2022-11-15T03:49:28.950Z,40.90
2022-11-15T03:52:19.644Z,33.92
2022-11-15T03:55:07.371Z,38.88
2022-11-15T03:57:58.912Z,32.65
2022-11-15T04:00:44.273Z,37.93
2022-11-15T04:03:29.962Z,33.47
2022-11-15T04:06:15.825Z,38.85
2022-11-15T04:09:01.309Z,35.58
2022-11-15T04:11:46.785Z,36.22
2022-11-15T04:14:32.271Z,40.97
2022-11-15T04:17:17.718Z,38.08
2022-11-15T04:20:28.039Z,37.33
2022-11-15T04:23:41.698Z,31.77
2022-11-15T04:26:27.327Z,37.97
2022-11-15T04:29:31.488Z,33.57
2022-11-15T04:32:17.045Z,38.08
2022-11-15T04:35:02.622Z,33.10
2022-11-15T04:37:49.558Z,40.85
2022-11-15T04:40:36.654Z,34.63
2022-11-15T04:43:22.009Z,34.23
2022-11-15T04:46:07.484Z,31.90
2022-11-15T04:48:58.323Z,36.42
2022-11-15T04:51:44.933Z,36.10
2022-11-15T04:54:30.481Z,26.35
2022-11-15T04:57:15.882Z,32.03
2022-11-15T05:00:03.602Z,30.13
2022-11-15T05:03:07.420Z,24.65
2022-11-15T05:05:52.928Z,31.38
2022-11-15T05:08:38.404Z,28.75
2022-11-15T05:11:24.495Z,30.37
2022-11-15T05:14:10.627Z,22.92
2022-11-15T05:16:56.243Z,29.98
2022-11-15T05:19:41.638Z,21.00
2022-11-15T05:22:28.011Z,30.77
2022-11-15T05:25:13.101Z,31.50
2022-11-15T05:27:58.562Z,26.30
2022-11-15T05:30:44.002Z,29.15
2022-11-15T05:33:30.417Z,32.00
2022-11-15T05:36:38.684Z,27.15
2022-11-15T05:39:24.251Z,27.50
2022-11-15T05:42:15.000Z,30.35
2022-11-15T05:45:03.249Z,21.88
2022-11-15T05:47:50.472Z,24.77
2022-11-15T05:50:39.202Z,24.45
2022-11-15T05:53:26.809Z,18.27
2022-11-15T05:56:13.446Z,21.02
2022-11-15T05:59:00.098Z,27.95
2022-11-15T06:01:46.199Z,20.42
2022-11-15T06:04:31.650Z,32.17
2022-11-15T06:07:17.383Z,28.27
2022-11-15T06:10:02.639Z,26.77
2022-11-15T06:12:48.120Z,25.10
2022-11-15T06:15:35.248Z,30.52
2022-11-15T06:18:20.506Z,32.65
2022-11-15T06:21:06.533Z,27.63
2022-11-15T06:23:51.918Z,27.45
2022-11-15T06:26:37.479Z,25.77
2022-11-15T06:29:23.036Z,26.67
2022-11-15T06:32:08.597Z,30.67
2022-11-15T06:34:54.188Z,23.20
2022-11-15T06:37:39.676Z,29.92
2022-11-15T06:40:25.195Z,26.85
2022-11-15T06:43:10.595Z,23.33
2022-11-15T06:45:55.877Z,29.92
2022-11-15T06:48:41.449Z,29.40
2022-11-15T06:51:26.658Z,29.33
2022-11-15T06:54:12.328Z,29.75
2022-11-15T06:56:57.789Z,25.75
2022-11-15T06:59:43.200Z,27.90
2022-11-15T07:02:28.751Z,24.30
2022-11-15T07:05:15.169Z,26.20
2022-11-15T07:08:00.840Z,24.58
2022-11-15T07:10:45.895Z,28.38
2022-11-15T07:13:34.793Z,28.67
2022-11-15T07:16:20.590Z,24.43
2022-11-15T07:19:06.196Z,28.13
2022-11-15T07:21:51.889Z,27.42
2022-11-15T07:24:37.365Z,30.63
2022-11-15T07:27:22.746Z,28.52
2022-11-15T07:30:09.017Z,26.77
2022-11-15T07:32:55.904Z,32.75
2022-11-15T07:35:41.146Z,24.92
2022-11-15T07:38:26.769Z,24.90
2022-11-15T07:41:12.226Z,24.92
2022-11-15T07:43:58.692Z,21.13
2022-11-15T07:46:44.273Z,30.50
2022-11-15T07:49:29.680Z,24.38
2022-11-15T07:52:15.200Z,18.35
2022-11-15T07:55:00.610Z,25.40
2022-11-15T07:57:46.104Z,23.03
2022-11-15T08:00:32.120Z,21.05
2022-11-15T08:03:18.362Z,22.27
2022-11-15T08:06:04.816Z,20.15
2022-11-15T08:08:50.208Z,18.88
2022-11-15T08:11:35.858Z,21.63
2022-11-15T08:14:22.960Z,20.00
2022-11-15T08:17:08.731Z,17.55
2022-11-15T08:19:54.242Z,17.20
2022-11-15T08:22:39.734Z,20.33
2022-11-15T08:25:29.441Z,28.67
2022-11-15T08:28:17.742Z,35.22
2022-11-15T08:31:04.467Z,23.60
2022-11-15T08:33:50.043Z,18.42
2022-11-15T08:36:44.636Z,27.95
2022-11-15T08:39:31.802Z,18.17
2022-11-15T08:42:19.918Z,33.70
2022-11-15T08:45:06.568Z,32.92
2022-11-15T08:47:54.415Z,27.23
2022-11-15T08:50:39.881Z,17.13
2022-11-15T08:53:25.436Z,13.73
2022-11-15T08:56:12.623Z,14.80
2022-11-15T08:58:58.040Z,18.83
2022-11-15T09:01:43.378Z,14.13
2022-11-15T09:04:28.944Z,59.05
2022-11-15T09:07:14.846Z,25.83
2022-11-15T09:10:00.479Z,25.15
2022-11-15T09:12:49.246Z,50.08
2022-11-15T09:15:35.092Z,19.23
2022-11-15T09:18:23.190Z,24.95
2022-11-15T09:21:08.951Z,12.07
2022-11-15T09:23:54.601Z,20.25
2022-11-15T09:26:40.698Z,12.82
2022-11-15T09:29:25.982Z,31.33
2022-11-15T09:32:11.544Z,15.70
2022-11-15T09:34:57.370Z,12.33
2022-11-15T09:37:42.647Z,24.50
2022-11-15T09:40:28.634Z,16.65
2022-11-15T09:43:32.640Z,19.13
2022-11-15T09:46:27.799Z,13.98
2022-11-15T09:49:18.144Z,11.97
2022-11-15T09:52:22.133Z,28.67
2022-11-15T09:54:55.546Z,18.40
2022-11-15T09:57:45.556Z,16.50
2022-11-15T10:00:47.461Z,10.48
2022-11-15T10:03:26.886Z,12.20
2022-11-15T10:05:58.041Z,28.90
2022-11-15T10:08:48.013Z,12.20
2022-11-15T10:11:38.341Z,8.93
2022-11-15T10:14:22.212Z,9.93
2022-11-15T10:17:02.313Z,10.27
2022-11-15T10:19:38.427Z,13.15
2022-11-15T10:22:42.347Z,22.63
2022-11-15T10:25:25.627Z,12.52
2022-11-15T10:28:03.071Z,27.17
2022-11-15T10:30:38.999Z,30.57
2022-11-15T10:33:34.601Z,14.80
2022-11-15T10:36:09.301Z,20.55
2022-11-15T10:39:04.037Z,9.88
2022-11-15T10:41:36.082Z,16.58
2022-11-15T10:44:18.301Z,13.77
2022-11-15T10:46:49.651Z,19.50
2022-11-15T10:49:18.992Z,20.98
2022-11-15T10:52:05.375Z,10.07
2022-11-15T10:54:38.835Z,36.47
2022-11-15T10:57:27.564Z,25.17
2022-11-15T11:00:21.384Z,22.27
2022-11-15T11:02:57.110Z,11.48
2022-11-15T11:05:29.099Z,7.32
2022-11-15T11:08:05.365Z,6.70
2022-11-15T11:13:25.571Z,14.50
2022-11-15T11:16:10.546Z,18.42
2022-11-15T11:18:58.999Z,22.48
2022-11-15T11:22:04.562Z,23.15
2022-11-15T11:24:38.831Z,19.90
2022-11-15T11:27:23.569Z,17.40
2022-11-15T11:29:59.214Z,51.95
2022-11-15T11:32:55.251Z,40.45
2022-11-15T11:35:29.792Z,25.10
2022-11-15T11:38:16.149Z,13.83
2022-11-15T11:41:08.613Z,11.98
2022-11-15T11:43:59.092Z,9.35
2022-11-15T11:46:50.840Z,7.65
2022-11-15T11:49:20.982Z,31.50
2022-11-15T11:52:08.615Z,10.13
2022-11-15T11:54:46.355Z,9.43
2022-11-15T11:57:29.062Z,10.35
2022-11-15T12:00:01.925Z,7.80
2022-11-15T12:02:43.013Z,6.13
2022-11-15T12:05:29.293Z,9.00
2022-11-15T12:08:28.101Z,5.43
2022-11-15T12:11:07.402Z,6.22
2022-11-15T12:13:37.666Z,8.13
2022-11-15T12:16:23.696Z,6.65
2022-11-15T12:18:54.737Z,6.40
2022-11-15T12:21:44.805Z,4.35
2022-11-15T12:24:25.634Z,8.05
2022-11-15T12:27:00.596Z,4.85
2022-11-15T12:29:49.485Z,5.78
2022-11-15T12:32:32.437Z,5.93
2022-11-15T12:35:00.295Z,4.88
2022-11-15T12:37:34.769Z,5.72
2022-11-15T12:40:19.195Z,5.65
2022-11-15T12:43:15.003Z,5.70
2022-11-15T12:45:44.330Z,6.70
2022-11-15T12:48:17.275Z,3.35
2022-11-15T12:50:56.018Z,7.95
2022-11-15T12:53:26.297Z,6.30
2022-11-15T12:56:21.704Z,6.63
2022-11-15T12:58:53.096Z,4.90
2022-11-15T13:01:34.894Z,7.03
2022-11-15T13:04:20.432Z,6.70
2022-11-15T13:06:51.570Z,6.78
2022-11-15T13:09:33.268Z,4.90
2022-11-15T13:12:35.335Z,4.30
2022-11-15T13:15:22.900Z,4.82
2022-11-15T13:17:50.814Z,8.05
2022-11-15T13:20:17.502Z,4.40
2022-11-15T13:22:51.635Z,5.68
2022-11-15T13:25:36.981Z,7.47
2022-11-15T13:28:15.266Z,6.82
2022-11-15T13:30:48.015Z,5.40
2022-11-15T13:33:18.537Z,3.38
2022-11-15T13:35:49.989Z,4.90
2022-11-15T13:38:27.323Z,6.67
2022-11-15T13:40:54.230Z,5.10
2022-11-15T13:43:24.094Z,6.78
2022-11-15T13:46:24.014Z,6.68
2022-11-15T13:48:59.719Z,5.75
2022-11-15T13:51:41.179Z,5.33
2022-11-15T13:54:13.756Z,7.22
2022-11-15T13:57:03.772Z,5.28
2022-11-15T13:59:34.201Z,4.43
2022-11-15T14:02:12.073Z,6.05
2022-11-15T14:04:46.088Z,8.50
2022-11-15T14:07:19.968Z,5.00
2022-11-15T14:09:47.289Z,6.15
2022-11-15T14:12:34.797Z,4.60
2022-11-15T14:15:20.173Z,5.40
2022-11-15T14:17:50.044Z,9.20
2022-11-15T14:20:24.803Z,5.47
2022-11-15T14:22:57.157Z,8.07
2022-11-15T14:25:25.951Z,5.80
2022-11-15T14:28:34.307Z,7.47
2022-11-15T14:31:01.634Z,4.00
2022-11-15T14:33:37.048Z,6.28
2022-11-15T14:36:14.284Z,6.65
2022-11-15T14:38:41.410Z,4.95
2022-11-15T14:41:23.595Z,7.35
2022-11-15T14:43:51.871Z,6.20
2022-11-15T14:46:18.919Z,4.93
2022-11-15T14:48:45.993Z,6.03
2022-11-15T14:51:14.747Z,8.10
2022-11-15T14:53:42.827Z,6.10
2022-11-15T14:56:10.226Z,8.13
2022-11-15T14:58:37.058Z,4.88
2022-11-15T15:01:19.725Z,5.07
2022-11-15T15:03:46.541Z,5.65
2022-11-15T15:06:17.863Z,4.82
2022-11-15T15:08:46.559Z,6.60
2022-11-15T15:11:32.318Z,3.90
2022-11-15T15:14:00.504Z,5.78
2022-11-15T15:16:27.291Z,7.38
2022-11-15T15:18:54.066Z,8.23
2022-11-15T15:21:24.403Z,5.43
2022-11-15T15:23:52.355Z,5.05
2022-11-15T15:26:19.127Z,4.50
2022-11-15T15:28:45.921Z,8.60
2022-11-15T15:31:12.719Z,4.50
2022-11-15T15:33:39.609Z,4.00
2022-11-15T15:36:06.598Z,5.15
2022-11-15T15:38:33.817Z,4.15
2022-11-15T15:41:02.908Z,3.92
2022-11-15T15:43:29.660Z,5.82
2022-11-15T15:45:56.381Z,3.67
2022-11-15T15:48:23.234Z,4.90
2022-11-15T15:50:50.193Z,7.25
2022-11-15T15:53:18.246Z,6.07
2022-11-15T15:55:45.065Z,4.70
2022-11-15T15:58:11.962Z,7.70
2022-11-15T16:00:39.713Z,5.78
2022-11-15T16:03:06.547Z,7.00
2022-11-15T16:05:33.288Z,4.95
2022-11-15T16:08:00.351Z,6.63
2022-11-15T16:10:30.302Z,4.83
2022-11-15T16:12:58.524Z,6.53
2022-11-15T16:15:30.329Z,6.88
2022-11-15T16:17:59.134Z,4.35
2022-11-15T16:20:45.245Z,5.35
2022-11-15T16:23:14.850Z,4.33
2022-11-15T16:25:52.886Z,5.90
2022-11-15T16:28:25.437Z,5.25
2022-11-15T16:31:00.793Z,10.35
2022-11-15T16:33:27.724Z,4.63
2022-11-15T16:35:54.550Z,7.20
2022-11-15T16:38:21.313Z,5.80
2022-11-15T16:40:48.228Z,4.38
2022-11-15T16:43:15.286Z,6.00
2022-11-15T16:45:42.154Z,4.03
2022-11-15T16:48:26.243Z,5.67
2022-11-15T16:50:57.631Z,5.60
2022-11-15T16:53:25.125Z,7.00
2022-11-15T16:55:52.088Z,7.50
2022-11-15T16:58:18.900Z,8.20
2022-11-15T17:00:46.229Z,4.60
2022-11-15T17:03:13.101Z,5.78
2022-11-15T17:05:39.913Z,8.93
2022-11-15T17:08:06.727Z,7.68
2022-11-15T17:10:36.521Z,5.68
2022-11-15T17:13:03.372Z,6.73
2022-11-15T17:15:30.167Z,6.22
2022-11-15T17:17:56.888Z,7.25
2022-11-15T17:20:25.067Z,6.53
2022-11-15T17:22:52.904Z,8.38
2022-11-15T17:25:20.595Z,6.27
2022-11-15T17:27:47.673Z,8.18
2022-11-15T17:30:15.441Z,6.03
2022-11-15T17:32:43.289Z,6.88
2022-11-15T17:35:15.675Z,6.68
2022-11-15T17:37:43.312Z,10.30
2022-11-15T17:40:10.903Z,7.22
2022-11-15T17:42:40.147Z,8.40
2022-11-15T17:45:10.220Z,9.07
2022-11-15T17:47:37.464Z,10.80
2022-11-15T17:50:04.680Z,8.80
2022-11-15T17:52:31.508Z,11.68
2022-11-15T17:54:58.310Z,9.35
2022-11-15T17:57:25.108Z,8.63
2022-11-15T17:59:51.925Z,10.15
2022-11-15T18:02:19.472Z,10.37
2022-11-15T18:04:46.337Z,10.63
2022-11-15T18:07:14.358Z,9.63
2022-11-15T18:09:43.868Z,9.35
2022-11-15T18:12:11.983Z,17.00
2022-11-15T18:14:39.024Z,13.43
2022-11-15T18:17:06.049Z,9.55
2022-11-15T18:19:32.838Z,9.82
2022-11-15T18:22:00.830Z,11.25
2022-11-15T18:24:30.375Z,9.75
2022-11-15T18:26:58.367Z,10.77
2022-11-15T18:29:25.272Z,9.52
2022-11-15T18:31:55.792Z,8.80
2022-11-15T18:34:24.545Z,11.57
2022-11-15T18:36:52.655Z,7.88
2022-11-15T18:39:20.183Z,8.50
2022-11-15T18:41:47.815Z,7.15
2022-11-15T18:44:15.281Z,10.18
2022-11-15T18:46:42.899Z,8.43
2022-11-15T18:49:10.917Z,8.57
2022-11-15T18:51:41.563Z,9.80
2022-11-15T18:54:10.764Z,8.93
2022-11-15T18:56:38.300Z,8.13
2022-11-15T18:59:06.216Z,8.32
2022-11-15T19:01:35.693Z,8.60
2022-11-15T19:04:08.768Z,16.63
2022-11-15T19:06:41.542Z,11.35
2022-11-15T19:09:09.912Z,11.05
2022-11-15T19:11:39.583Z,10.48
2022-11-15T19:14:07.701Z,10.82
2022-11-15T19:16:36.627Z,12.70
2022-11-15T19:19:06.716Z,19.20
2022-11-15T19:21:34.444Z,12.40
2022-11-15T19:24:01.519Z,17.98
2022-11-15T19:26:29.353Z,17.55
2022-11-15T19:29:01.176Z,15.70
2022-11-15T19:31:30.303Z,14.82
2022-11-15T19:33:59.981Z,16.42
2022-11-15T19:36:32.599Z,18.92
2022-11-15T19:39:05.185Z,25.48
2022-11-15T19:41:32.134Z,11.53
2022-11-15T19:43:58.923Z,10.30
2022-11-15T19:46:26.873Z,14.90
2022-11-15T19:48:54.452Z,11.10
2022-11-15T19:51:27.395Z,12.32
2022-11-15T19:53:56.173Z,15.57
2022-11-15T19:56:23.668Z,12.50
2022-11-15T19:58:52.832Z,13.50
2022-11-15T20:01:21.194Z,23.73
2022-11-15T20:03:48.982Z,18.30
2022-11-15T20:06:20.301Z,14.03
2022-11-15T20:08:47.980Z,13.32
2022-11-15T20:11:16.100Z,13.68
2022-11-15T20:13:43.590Z,14.60
2022-11-15T20:16:21.613Z,12.95
2022-11-15T20:18:50.238Z,13.30
2022-11-15T20:21:18.018Z,14.50
2022-11-15T20:23:45.351Z,12.48
2022-11-15T20:26:15.161Z,15.20
2022-11-15T20:28:43.960Z,15.10
2022-11-15T20:31:11.868Z,14.13
2022-11-15T20:33:38.801Z,13.90
2022-11-15T20:36:12.066Z,11.07
2022-11-15T20:38:39.719Z,12.43
2022-11-15T20:41:06.831Z,12.27
2022-11-15T20:43:33.850Z,11.00
2022-11-15T20:46:00.728Z,12.77
2022-11-15T20:48:27.971Z,12.60
2022-11-15T20:51:05.319Z,13.45
2022-11-15T20:53:32.182Z,13.20
2022-11-15T20:56:04.514Z,13.93
2022-11-15T20:58:31.585Z,13.70
2022-11-15T21:00:58.803Z,14.15
2022-11-15T21:03:25.854Z,13.63
2022-11-15T21:05:53.792Z,13.13
2022-11-15T21:08:20.624Z,12.90
2022-11-15T21:11:09.984Z,13.30
2022-11-15T21:13:37.456Z,11.30
2022-11-15T21:16:05.440Z,14.13
2022-11-15T21:18:33.202Z,13.93
2022-11-15T21:21:05.446Z,14.90
2022-11-15T21:23:32.496Z,13.80
2022-11-15T21:25:59.583Z,15.63
2022-11-15T21:28:26.330Z,13.23
2022-11-15T21:30:58.990Z,13.52
2022-11-15T21:33:29.784Z,13.07
2022-11-15T21:35:57.688Z,12.55
2022-11-15T21:38:25.101Z,14.43
2022-11-15T21:40:52.939Z,14.02
2022-11-15T21:43:20.952Z,14.25
2022-11-15T21:45:58.401Z,14.67
2022-11-15T21:48:25.184Z,15.43
2022-11-15T21:50:59.694Z,15.75
2022-11-15T21:53:27.639Z,17.45
2022-11-15T21:55:54.896Z,18.02
2022-11-15T21:58:22.728Z,16.67
2022-11-15T22:01:08.373Z,15.10
2022-11-15T22:03:35.933Z,17.15
2022-11-15T22:06:02.835Z,15.73
2022-11-15T22:08:31.241Z,18.77
2022-11-15T22:10:58.363Z,18.40
2022-11-15T22:13:26.092Z,18.88
2022-11-15T22:15:54.143Z,17.13
2022-11-15T22:18:26.380Z,15.95
2022-11-15T22:21:00.722Z,15.55
2022-11-15T22:23:29.292Z,21.60
2022-11-15T22:25:56.555Z,17.65
2022-11-15T22:28:23.718Z,19.75
2022-11-15T22:30:52.212Z,16.80
2022-11-15T22:33:21.183Z,18.88
2022-11-15T22:35:48.126Z,18.47
2022-11-15T22:38:15.227Z,18.45
2022-11-15T22:40:42.202Z,17.13
2022-11-15T22:43:10.040Z,17.55
2022-11-15T22:45:36.746Z,17.65
2022-11-15T22:48:03.648Z,17.70
2022-11-15T22:50:30.519Z,19.00
2022-11-15T22:52:57.383Z,20.30
2022-11-15T22:55:24.117Z,20.02
2022-11-15T22:57:51.014Z,18.77
2022-11-15T23:00:18.599Z,18.33
2022-11-15T23:02:45.350Z,16.75
2022-11-15T23:05:12.093Z,17.65
2022-11-15T23:07:38.953Z,18.30
2022-11-15T23:10:24.839Z,22.20
2022-11-15T23:13:10.548Z,17.67
2022-11-15T23:15:56.134Z,16.90
2022-11-15T23:18:22.878Z,18.58
2022-11-15T23:20:49.758Z,19.77
2022-11-15T23:23:16.488Z,18.27
2022-11-15T23:25:43.348Z,15.03
2022-11-15T23:28:10.130Z,19.05
2022-11-15T23:30:56.502Z,19.73
2022-11-15T23:33:42.031Z,17.40
2022-11-15T23:36:09.084Z,17.73
2022-11-15T23:38:37.394Z,20.37
2022-11-15T23:41:05.788Z,19.75
2022-11-15T23:43:32.854Z,17.45
2022-11-15T23:46:03.069Z,18.02
2022-11-15T23:48:29.972Z,16.27
2022-11-15T23:50:56.980Z,18.10
2022-11-15T23:53:23.858Z,16.15
2022-11-15T23:56:02.155Z,15.45
2022-11-15T23:58:29.121Z,17.38
